createdAt,value
2018-02-10T00:01:24.763Z,16.70
2018-02-10T00:06:27.344Z,15.20
2018-02-10T00:11:30.756Z,16.50
2018-02-10T00:16:33.348Z,16.90
2018-02-10T00:21:36.135Z,16.87
2018-02-10T00:26:38.681Z,16.03
2018-02-10T00:31:41.971Z,16.00
2018-02-10T00:36:44.793Z,18.40
2018-02-10T00:41:48.434Z,17.47
2018-02-10T00:46:51.442Z,16.17
2018-02-10T00:51:54.303Z,16.53
2018-02-10T00:56:56.921Z,15.20
2018-02-10T01:02:00.294Z,14.70
2018-02-10T01:07:03.241Z,14.77
2018-02-10T01:12:05.811Z,13.40
2018-02-10T01:17:08.872Z,12.87
2018-02-10T01:22:11.517Z,12.40
2018-02-10T01:27:14.791Z,12.67
2018-02-10T01:32:17.322Z,12.80
2018-02-10T01:37:19.848Z,10.70
2018-02-10T01:42:22.524Z,10.40
2018-02-10T01:47:25.036Z,9.83
2018-02-10T01:52:27.562Z,10.30
2018-02-10T01:57:30.399Z,9.73
2018-02-10T02:02:32.965Z,9.87
2018-02-10T02:07:35.467Z,10.83
2018-02-10T02:12:38.895Z,10.37
2018-02-10T02:17:41.457Z,10.20
2018-02-10T02:22:43.952Z,8.97
2018-02-10T02:27:46.462Z,10.00
2018-02-10T02:32:49.277Z,9.70
2018-02-10T02:37:52.451Z,10.00
2018-02-10T02:42:55.216Z,9.53
2018-02-10T02:47:58.395Z,9.13
2018-02-10T02:53:00.991Z,8.80
2018-02-10T02:58:03.885Z,9.80
2018-02-10T03:03:07.202Z,8.47
2018-02-10T03:08:10.322Z,9.57
2018-02-10T03:13:12.839Z,9.70
2018-02-10T03:18:16.784Z,8.40
2018-02-10T03:23:19.298Z,7.70
2018-02-10T03:28:21.836Z,7.73
2018-02-10T03:33:24.371Z,8.30
2018-02-10T03:38:26.959Z,8.70
2018-02-10T03:43:29.473Z,8.90
2018-02-10T03:48:32.058Z,7.97
2018-02-10T03:53:34.626Z,7.97
2018-02-10T03:58:37.214Z,7.33
2018-02-10T04:03:39.772Z,7.73
2018-02-10T04:08:42.316Z,7.40
2018-02-10T04:13:44.890Z,7.40
2018-02-10T04:18:47.418Z,7.30
2018-02-10T04:23:50.201Z,7.00
2018-02-10T04:28:52.703Z,8.03
2018-02-10T04:33:55.230Z,7.77
2018-02-10T04:38:58.500Z,7.37
2018-02-10T04:44:01.036Z,6.50
2018-02-10T04:49:03.603Z,6.70
2018-02-10T04:54:06.233Z,6.80
2018-02-10T04:59:08.758Z,6.60
2018-02-10T05:04:11.287Z,7.30
2018-02-10T05:09:14.018Z,6.83
2018-02-10T05:14:16.580Z,7.50
2018-02-10T05:19:19.227Z,7.03
2018-02-10T05:24:21.825Z,6.60
2018-02-10T05:29:24.364Z,6.80
2018-02-10T05:34:28.148Z,6.97
2018-02-10T05:39:30.691Z,6.00
2018-02-10T05:44:33.411Z,7.47
2018-02-10T05:49:37.061Z,6.40
2018-02-10T05:54:39.896Z,6.23
2018-02-10T05:59:42.422Z,6.93
2018-02-10T06:04:45.753Z,6.23
2018-02-10T06:09:48.271Z,6.43
2018-02-10T06:14:50.887Z,6.33
2018-02-10T06:19:53.448Z,6.03
2018-02-10T06:24:56.590Z,6.63
2018-02-10T06:29:59.135Z,6.50
2018-02-10T06:35:01.696Z,6.20
2018-02-10T06:40:04.218Z,6.40
2018-02-10T06:45:07.709Z,6.60
2018-02-10T06:50:10.322Z,5.80
2018-02-10T06:55:13.735Z,6.40
2018-02-10T07:00:17.017Z,5.07
2018-02-10T07:05:19.533Z,5.73
2018-02-10T07:10:22.818Z,5.27
2018-02-10T07:15:25.505Z,4.90
2018-02-10T07:20:28.055Z,5.20
2018-02-10T07:25:30.660Z,4.80
2018-02-10T07:30:33.352Z,5.60
2018-02-10T07:35:36.299Z,4.80
2018-02-10T07:40:38.793Z,4.63
2018-02-10T07:45:41.287Z,4.23
2018-02-10T07:50:44.114Z,4.80
2018-02-10T07:55:47.168Z,4.13
2018-02-10T08:00:49.925Z,3.63
2018-02-10T08:05:52.451Z,4.30
2018-02-10T08:10:54.968Z,4.67
2018-02-10T08:15:57.500Z,4.90
2018-02-10T08:21:00.047Z,4.20
2018-02-10T08:26:02.676Z,4.80
2018-02-10T08:31:05.207Z,4.00
2018-02-10T08:36:07.750Z,3.90
2018-02-10T08:41:10.737Z,3.30
2018-02-10T08:46:13.272Z,4.07
2018-02-10T08:51:16.617Z,3.70
2018-02-10T08:56:19.167Z,3.20
2018-02-10T09:01:21.892Z,3.67
2018-02-10T09:06:24.938Z,3.17
2018-02-10T09:11:28.188Z,4.70
2018-02-10T09:16:30.998Z,5.13
2018-02-10T09:21:34.405Z,6.97
2018-02-10T09:26:38.539Z,35.33
2018-02-10T09:31:41.098Z,43.60
2018-02-10T09:36:44.153Z,35.40
2018-02-10T09:41:47.030Z,33.13
2018-02-10T09:46:51.200Z,31.50
2018-02-10T09:51:53.781Z,27.93
2018-02-10T09:56:58.974Z,24.90
2018-02-10T10:02:01.505Z,24.17
2018-02-10T10:07:04.019Z,22.30
2018-02-10T10:12:06.580Z,19.13
2018-02-10T10:17:09.454Z,20.30
2018-02-10T10:22:13.151Z,18.03
2018-02-10T10:27:16.476Z,17.30
2018-02-10T10:32:19.615Z,15.13
2018-02-10T10:37:22.470Z,13.57
2018-02-10T10:42:25.069Z,14.23
2018-02-10T10:47:27.715Z,14.47
2018-02-10T10:52:30.772Z,13.50
2018-02-10T10:57:33.307Z,12.00
2018-02-10T11:02:35.995Z,11.10
2018-02-10T11:07:38.522Z,11.13
2018-02-10T11:12:41.865Z,11.50
2018-02-10T11:17:44.442Z,10.27
2018-02-10T11:22:47.046Z,10.93
2018-02-10T11:27:49.642Z,10.87
2018-02-10T11:32:52.285Z,12.47
2018-02-10T11:37:54.745Z,10.40
2018-02-10T11:42:57.704Z,11.27
2018-02-10T11:48:00.613Z,13.00
2018-02-10T11:53:04.119Z,12.30
2018-02-10T11:58:08.017Z,10.37
2018-02-10T12:03:10.695Z,9.80
2018-02-10T12:08:13.346Z,10.60
2018-02-10T12:13:16.045Z,8.77
2018-02-10T12:18:20.676Z,8.90
2018-02-10T12:23:23.387Z,9.70
2018-02-10T12:28:27.012Z,8.23
2018-02-10T12:33:30.324Z,9.37
2018-02-10T12:38:33.647Z,7.87
2018-02-10T12:43:36.692Z,8.30
2018-02-10T12:48:59.926Z,8.10
2018-02-10T12:54:02.456Z,8.00
2018-02-10T12:59:05.294Z,7.53
2018-02-10T13:04:08.114Z,7.70
2018-02-10T13:09:11.609Z,7.03
2018-02-10T13:14:14.160Z,6.30
2018-02-10T13:19:16.712Z,7.63
2018-02-10T13:24:20.048Z,7.40
2018-02-10T13:29:22.726Z,7.10
2018-02-10T13:34:26.296Z,7.30
2018-02-10T13:39:28.885Z,7.27
2018-02-10T13:44:32.804Z,6.77
2018-02-10T13:49:35.338Z,6.67
2018-02-10T13:54:38.384Z,6.10
2018-02-10T13:59:40.923Z,6.90
2018-02-10T14:04:43.628Z,6.87
2018-02-10T14:09:46.250Z,6.83
2018-02-10T14:14:50.088Z,6.70
2018-02-10T14:19:53.589Z,6.40
2018-02-10T14:24:58.249Z,5.90
2018-02-10T14:30:02.207Z,5.40
2018-02-10T14:35:06.220Z,6.17
2018-02-10T14:40:10.834Z,6.13
2018-02-10T14:45:16.882Z,7.00
2018-02-10T14:50:21.861Z,6.43
2018-02-10T14:55:25.183Z,6.73
2018-02-10T15:00:27.771Z,6.33
2018-02-10T15:05:31.413Z,5.80
2018-02-10T15:10:34.056Z,5.40
2018-02-10T15:15:36.994Z,6.30
2018-02-10T15:20:39.543Z,6.10
2018-02-10T15:25:42.139Z,5.60
2018-02-10T15:30:56.453Z,6.20
2018-02-10T15:35:59.756Z,5.63
2018-02-10T15:41:02.451Z,5.83
2018-02-10T15:46:05.054Z,6.60
2018-02-10T15:51:08.870Z,5.60
2018-02-10T15:56:12.102Z,6.13
2018-02-10T16:01:14.989Z,6.00
2018-02-10T16:06:17.673Z,6.30
2018-02-10T16:11:20.273Z,6.20
2018-02-10T16:16:23.044Z,5.50
2018-02-10T16:21:26.358Z,6.53
2018-02-10T16:26:28.931Z,7.13
2018-02-10T16:31:31.534Z,6.60
2018-02-10T16:36:34.272Z,5.13
2018-02-10T16:41:36.864Z,5.80
2018-02-10T16:46:39.702Z,6.37
2018-02-10T16:51:42.373Z,5.90
2018-02-10T16:56:45.892Z,5.50
2018-02-10T17:01:48.587Z,5.90
2018-02-10T17:06:51.940Z,4.80
2018-02-10T17:11:54.466Z,5.77
2018-02-10T17:16:57.078Z,5.60
2018-02-10T17:21:59.762Z,5.30
2018-02-10T17:27:02.364Z,6.37
2018-02-10T17:32:05.688Z,6.03
2018-02-10T17:37:08.195Z,5.27
2018-02-10T17:42:11.565Z,5.43
2018-02-10T17:47:14.096Z,5.57
2018-02-10T17:52:16.676Z,5.10
2018-02-10T17:57:19.552Z,5.30
2018-02-10T18:02:22.188Z,5.40
2018-02-10T18:07:25.473Z,6.57
2018-02-10T18:12:28.012Z,7.03
2018-02-10T18:17:30.651Z,7.17
2018-02-10T18:22:33.370Z,6.27
2018-02-10T18:27:36.668Z,7.17
2018-02-10T18:32:39.660Z,6.70
2018-02-10T18:37:42.219Z,5.77
2018-02-10T18:42:45.430Z,6.50
2018-02-10T18:47:48.710Z,6.10
2018-02-10T18:52:51.619Z,5.47
2018-02-10T18:57:55.027Z,5.60
2018-02-10T19:02:57.539Z,4.80
2018-02-10T19:08:00.702Z,5.77
2018-02-10T19:13:03.230Z,8.50
2018-02-10T19:18:06.605Z,14.97
2018-02-10T19:23:09.934Z,13.53
2018-02-10T19:28:12.551Z,30.90
2018-02-10T19:33:15.068Z,28.80
2018-02-10T19:38:17.842Z,29.90
2018-02-10T19:43:20.413Z,24.00
2018-02-10T19:48:23.391Z,22.03
2018-02-10T19:53:25.963Z,21.73
2018-02-10T19:58:28.954Z,21.63
2018-02-10T20:03:32.313Z,21.13
2018-02-10T20:08:34.831Z,22.50
2018-02-10T20:13:37.799Z,20.70
2018-02-10T20:18:40.706Z,19.77
2018-02-10T20:23:43.584Z,19.87
2018-02-10T20:28:46.520Z,18.40
2018-02-10T20:33:49.167Z,19.03
2018-02-10T20:38:51.831Z,18.37
2018-02-10T20:43:54.631Z,19.10
2018-02-10T20:48:57.985Z,17.37
2018-02-10T20:54:00.587Z,17.83
2018-02-10T20:59:03.603Z,17.93
2018-02-10T21:04:06.734Z,16.53
2018-02-10T21:09:09.638Z,16.10
2018-02-10T21:14:12.625Z,15.57
2018-02-10T21:19:15.949Z,16.60
2018-02-10T21:24:18.551Z,15.37
2018-02-10T21:29:21.130Z,14.40
2018-02-10T21:34:23.667Z,12.33
2018-02-10T21:39:26.241Z,14.97
2018-02-10T21:44:28.872Z,13.30
2018-02-10T21:49:31.613Z,14.30
2018-02-10T21:54:34.167Z,14.50
2018-02-10T21:59:36.666Z,13.90
2018-02-10T22:04:39.206Z,14.30
2018-02-10T22:09:42.234Z,13.67
2018-02-10T22:14:44.764Z,12.53
2018-02-10T22:19:47.316Z,12.60
2018-02-10T22:24:49.920Z,14.50
2018-02-10T22:29:52.655Z,11.80
2018-02-10T22:34:55.225Z,12.93
2018-02-10T22:39:58.134Z,12.87
2018-02-10T22:45:02.204Z,12.67
2018-02-10T22:50:04.749Z,10.83
2018-02-10T22:55:07.955Z,10.87
2018-02-10T23:00:10.604Z,9.60
2018-02-10T23:05:13.151Z,11.20
2018-02-10T23:10:15.911Z,9.60
2018-02-10T23:15:19.144Z,10.00
2018-02-10T23:20:21.713Z,9.20
2018-02-10T23:25:24.350Z,7.90
2018-02-10T23:30:27.245Z,8.90
2018-02-10T23:35:35.239Z,9.00
2018-02-10T23:40:38.078Z,7.70
2018-02-10T23:45:40.662Z,7.07
2018-02-10T23:50:43.228Z,7.10
2018-02-10T23:55:45.935Z,6.47
